EXS15PD LFLB-EGKK
Flight info
| Callsign | EXS15PD |
|---|---|
| Flight time | 1h 15m |
| Altitude | 36000 |
| Route | BUSIL DCT AMORO DCT MOMIL DCT BAGBI DCT SIZZA DCT LAULY DCT BRY DCT CLM DCT KOPOR DCT KESAX DCT KUNAV |
| Aircraft | B738/M-SDE2E3FGHIRWXY/LB1 |
Departure
| Time | 2026-04-17 10:48 |
|---|---|
| Airport | Chambéry Aix les Bains airport (LFLB) |
Arrival
| Time | 2026-04-17 12:04 |
|---|---|
| Airport | London Gatwick Airport (EGKK) |
| Time | Latitude | Longitude | Altitude | Speed | Heading |
|---|---|---|---|---|---|
| 2026-04-17 10:14 | 45.63781 | 5.88294 | 782 ft | 0 kts | 86° |
| 2026-04-17 10:38 | 45.63780 | 5.88272 | 809 ft | 4 kts | 97° |
| 2026-04-17 10:39 | 45.63788 | 5.88239 | 782 ft | 4 kts | 137° |
| 2026-04-17 10:39 | 45.63807 | 5.88225 | 782 ft | 1 kts | 175° |
| 2026-04-17 10:42 | 45.63803 | 5.88226 | 782 ft | 3 kts | 174° |
| 2026-04-17 10:43 | 45.63743 | 5.88232 | 782 ft | 14 kts | 176° |
| 2026-04-17 10:43 | 45.63619 | 5.88243 | 782 ft | 19 kts | 176° |
| 2026-04-17 10:43 | 45.63490 | 5.88253 | 782 ft | 18 kts | 176° |
| 2026-04-17 10:43 | 45.63366 | 5.88263 | 782 ft | 18 kts | 177° |
| 2026-04-17 10:44 | 45.63259 | 5.88273 | 782 ft | 14 kts | 179° |
| 2026-04-17 10:44 | 45.63172 | 5.88246 | 782 ft | 13 kts | 222° |
| 2026-04-17 10:44 | 45.63149 | 5.88126 | 784 ft | 13 kts | 262° |
| 2026-04-17 10:44 | 45.63078 | 5.88081 | 783 ft | 13 kts | 177° |
| 2026-04-17 10:45 | 45.62995 | 5.88105 | 783 ft | 12 kts | 153° |
| 2026-04-17 10:45 | 45.62924 | 5.88136 | 784 ft | 6 kts | 201° |
| 2026-04-17 10:45 | 45.62935 | 5.88093 | 783 ft | 7 kts | 345° |
| 2026-04-17 10:45 | 45.63027 | 5.88085 | 783 ft | 32 kts | 355° |
| 2026-04-17 10:46 | 45.63157 | 5.88074 | 784 ft | 4 kts | 355° |
| 2026-04-17 10:46 | 45.63175 | 5.88071 | 784 ft | 1 kts | 41° |
| 2026-04-17 10:46 | 45.63168 | 5.88082 | 784 ft | 2 kts | 152° |
| 2026-04-17 10:46 | 45.63107 | 5.88083 | 784 ft | 15 kts | 178° |
| 2026-04-17 10:47 | 45.62993 | 5.88105 | 783 ft | 18 kts | 154° |
| 2026-04-17 10:47 | 45.62923 | 5.88127 | 784 ft | 1 kts | 235° |
| 2026-04-17 10:47 | 45.62934 | 5.88100 | 783 ft | 9 kts | 326° |
| 2026-04-17 10:47 | 45.63141 | 5.88075 | 784 ft | 64 kts | 356° |
| 2026-04-17 10:48 | 45.63844 | 5.88019 | 782 ft | 135 kts | 356° |
| 2026-04-17 10:48 | 45.64963 | 5.87948 | 940 ft | 178 kts | 357° |
| 2026-04-17 10:48 | 45.66206 | 5.87811 | 1836 ft | 182 kts | 354° |
| 2026-04-17 10:48 | 45.67546 | 5.87679 | 2466 ft | 201 kts | 356° |
| 2026-04-17 10:49 | 45.68935 | 5.87557 | 3255 ft | 202 kts | 357° |
| 2026-04-17 10:49 | 45.70369 | 5.87445 | 3825 ft | 214 kts | 358° |
| 2026-04-17 10:49 | 45.71865 | 5.87333 | 4474 ft | 222 kts | 358° |
| 2026-04-17 10:49 | 45.73418 | 5.87207 | 5286 ft | 226 kts | 356° |
| 2026-04-17 10:50 | 45.74976 | 5.86820 | 6008 ft | 232 kts | 332° |
| 2026-04-17 10:50 | 45.76132 | 5.85270 | 6783 ft | 230 kts | 295° |
| 2026-04-17 10:50 | 45.76474 | 5.83087 | 7553 ft | 227 kts | 263° |
| 2026-04-17 10:50 | 45.75937 | 5.80993 | 8336 ft | 226 kts | 234° |
| 2026-04-17 10:51 | 45.74878 | 5.79305 | 9095 ft | 230 kts | 223° |
| 2026-04-17 10:51 | 45.73692 | 5.77737 | 9897 ft | 233 kts | 223° |
| 2026-04-17 10:51 | 45.72483 | 5.76157 | 10614 ft | 237 kts | 223° |
| 2026-04-17 10:51 | 45.71279 | 5.74563 | 11290 ft | 241 kts | 224° |
| 2026-04-17 10:52 | 45.70051 | 5.72918 | 11989 ft | 244 kts | 224° |
| 2026-04-17 10:52 | 45.68803 | 5.71239 | 12699 ft | 248 kts | 224° |
| 2026-04-17 10:52 | 45.67549 | 5.69529 | 13416 ft | 251 kts | 229° |
| 2026-04-17 10:52 | 45.66720 | 5.67361 | 14037 ft | 253 kts | 261° |
| 2026-04-17 10:53 | 45.66745 | 5.64789 | 14339 ft | 270 kts | 280° |
| 2026-04-17 10:53 | 45.67104 | 5.62028 | 14513 ft | 294 kts | 281° |
| 2026-04-17 10:53 | 45.67645 | 5.59087 | 14679 ft | 318 kts | 295° |
| 2026-04-17 10:53 | 45.68843 | 5.56304 | 14869 ft | 340 kts | 304° |
| 2026-04-17 10:54 | 45.70202 | 5.53464 | 15311 ft | 351 kts | 304° |
| 2026-04-17 10:54 | 45.71572 | 5.50592 | 15973 ft | 356 kts | 304° |
| 2026-04-17 10:54 | 45.72964 | 5.47641 | 16715 ft | 358 kts | 303° |
| 2026-04-17 10:54 | 45.74366 | 5.44679 | 17469 ft | 361 kts | 306° |
| 2026-04-17 10:55 | 45.76078 | 5.42035 | 18145 ft | 366 kts | 317° |
| 2026-04-17 10:55 | 45.77983 | 5.39588 | 18776 ft | 370 kts | 317° |
| 2026-04-17 10:55 | 45.79919 | 5.37134 | 19387 ft | 373 kts | 317° |
| 2026-04-17 10:55 | 45.81863 | 5.34664 | 20021 ft | 375 kts | 317° |
| 2026-04-17 10:56 | 45.83816 | 5.32165 | 20646 ft | 377 kts | 317° |
| 2026-04-17 10:56 | 45.85749 | 5.29674 | 21247 ft | 381 kts | 316° |
| 2026-04-17 10:56 | 45.87720 | 5.27120 | 21818 ft | 384 kts | 316° |
| 2026-04-17 10:56 | 45.89712 | 5.24529 | 22399 ft | 387 kts | 316° |
| 2026-04-17 10:57 | 45.91707 | 5.21925 | 22967 ft | 390 kts | 315° |
| 2026-04-17 10:57 | 45.93726 | 5.19287 | 23517 ft | 394 kts | 315° |
| 2026-04-17 10:57 | 45.95760 | 5.16624 | 24002 ft | 397 kts | 315° |
| 2026-04-17 10:57 | 45.97807 | 5.13943 | 24480 ft | 399 kts | 315° |
| 2026-04-17 10:58 | 45.99862 | 5.11250 | 24985 ft | 400 kts | 315° |
| 2026-04-17 10:58 | 46.01926 | 5.08540 | 25459 ft | 403 kts | 315° |
| 2026-04-17 10:58 | 46.03999 | 5.05816 | 25891 ft | 405 kts | 315° |
| 2026-04-17 10:58 | 46.06061 | 5.03104 | 26331 ft | 408 kts | 315° |
| 2026-04-17 10:59 | 46.08157 | 5.00345 | 26781 ft | 409 kts | 315° |
| 2026-04-17 10:59 | 46.10263 | 4.97569 | 27217 ft | 411 kts | 315° |
| 2026-04-17 10:59 | 46.12380 | 4.94775 | 27632 ft | 414 kts | 315° |
| 2026-04-17 10:59 | 46.14508 | 4.91963 | 28048 ft | 416 kts | 315° |
| 2026-04-17 11:00 | 46.16647 | 4.89134 | 28455 ft | 418 kts | 315° |
| 2026-04-17 11:00 | 46.18793 | 4.86292 | 28856 ft | 420 kts | 315° |
| 2026-04-17 11:00 | 46.20951 | 4.83432 | 29242 ft | 422 kts | 315° |
| 2026-04-17 11:00 | 46.23124 | 4.80549 | 29618 ft | 425 kts | 315° |
| 2026-04-17 11:01 | 46.25274 | 4.77693 | 29978 ft | 427 kts | 315° |
| 2026-04-17 11:01 | 46.27466 | 4.74779 | 30323 ft | 429 kts | 315° |
| 2026-04-17 11:01 | 46.29714 | 4.71925 | 30628 ft | 432 kts | 320° |
| 2026-04-17 11:01 | 46.32220 | 4.69531 | 31052 ft | 431 kts | 326° |
| 2026-04-17 11:02 | 46.34785 | 4.67303 | 31544 ft | 428 kts | 327° |
| 2026-04-17 11:02 | 46.37339 | 4.65089 | 31951 ft | 427 kts | 326° |
| 2026-04-17 11:02 | 46.39878 | 4.62860 | 32335 ft | 427 kts | 326° |
| 2026-04-17 11:02 | 46.42405 | 4.60613 | 32733 ft | 425 kts | 326° |
| 2026-04-17 11:03 | 46.44917 | 4.58365 | 33160 ft | 424 kts | 326° |
| 2026-04-17 11:03 | 46.47428 | 4.56255 | 33553 ft | 424 kts | 333° |
| 2026-04-17 11:03 | 46.50239 | 4.54914 | 33895 ft | 428 kts | 346° |
| 2026-04-17 11:03 | 46.53208 | 4.54430 | 34263 ft | 431 kts | 357° |
| 2026-04-17 11:04 | 46.56205 | 4.54803 | 34601 ft | 433 kts | 5° |
| 2026-04-17 11:04 | 46.59185 | 4.55411 | 34900 ft | 433 kts | 5° |
| 2026-04-17 11:04 | 46.62169 | 4.56037 | 35152 ft | 434 kts | 5° |
| 2026-04-17 11:04 | 46.65160 | 4.56643 | 35423 ft | 433 kts | 5° |
| 2026-04-17 11:05 | 46.68144 | 4.57221 | 35726 ft | 432 kts | 4° |
| 2026-04-17 11:05 | 46.71084 | 4.57774 | 36024 ft | 432 kts | 4° |
| 2026-04-17 11:05 | 46.74062 | 4.58328 | 36222 ft | 433 kts | 4° |
| 2026-04-17 11:06 | 46.80088 | 4.58978 | 36198 ft | 433 kts | 352° |
| 2026-04-17 11:06 | 46.85839 | 4.56987 | 36199 ft | 419 kts | 334° |
| 2026-04-17 11:07 | 46.91138 | 4.53503 | 36224 ft | 418 kts | 333° |
| 2026-04-17 11:07 | 46.96434 | 4.49959 | 36203 ft | 419 kts | 333° |
| 2026-04-17 11:08 | 47.01726 | 4.46462 | 36207 ft | 420 kts | 333° |
| 2026-04-17 11:08 | 47.07055 | 4.42964 | 36215 ft | 421 kts | 333° |
| 2026-04-17 11:09 | 47.12404 | 4.39452 | 36221 ft | 421 kts | 333° |
| 2026-04-17 11:09 | 47.17760 | 4.35928 | 36212 ft | 422 kts | 333° |
| 2026-04-17 11:10 | 47.25760 | 4.30649 | 36212 ft | 422 kts | 333° |
| 2026-04-17 11:10 | 47.31120 | 4.27103 | 36232 ft | 422 kts | 333° |
| 2026-04-17 11:11 | 47.36473 | 4.23551 | 36216 ft | 422 kts | 333° |
| 2026-04-17 11:11 | 47.41793 | 4.20014 | 36215 ft | 422 kts | 333° |
| 2026-04-17 11:12 | 47.47143 | 4.16449 | 36220 ft | 422 kts | 333° |
| 2026-04-17 11:12 | 47.52491 | 4.12879 | 36230 ft | 421 kts | 333° |
| 2026-04-17 11:13 | 47.57834 | 4.09309 | 36207 ft | 421 kts | 333° |
| 2026-04-17 11:13 | 47.63170 | 4.05745 | 36208 ft | 420 kts | 333° |
| 2026-04-17 11:14 | 47.68464 | 4.02201 | 36227 ft | 420 kts | 333° |
| 2026-04-17 11:14 | 47.73783 | 3.98630 | 36213 ft | 420 kts | 333° |
| 2026-04-17 11:15 | 47.79098 | 3.95054 | 36212 ft | 419 kts | 333° |
| 2026-04-17 11:15 | 47.84404 | 3.91475 | 36223 ft | 419 kts | 333° |
| 2026-04-17 11:16 | 47.89673 | 3.87913 | 36225 ft | 418 kts | 333° |
| 2026-04-17 11:16 | 47.94972 | 3.84324 | 36242 ft | 418 kts | 333° |
| 2026-04-17 11:17 | 48.00265 | 3.80729 | 36228 ft | 418 kts | 333° |
| 2026-04-17 11:17 | 48.05552 | 3.77131 | 36230 ft | 417 kts | 333° |
| 2026-04-17 11:18 | 48.10799 | 3.73553 | 36221 ft | 417 kts | 333° |
| 2026-04-17 11:18 | 48.15867 | 3.69428 | 36226 ft | 413 kts | 321° |
| 2026-04-17 11:19 | 48.19971 | 3.63477 | 36238 ft | 411 kts | 311° |
| 2026-04-17 11:19 | 48.23815 | 3.57121 | 36226 ft | 411 kts | 311° |
| 2026-04-17 11:20 | 48.27649 | 3.50832 | 36230 ft | 411 kts | 311° |
| 2026-04-17 11:20 | 48.31523 | 3.44513 | 36227 ft | 411 kts | 311° |
| 2026-04-17 11:21 | 48.35401 | 3.38184 | 36232 ft | 412 kts | 311° |
| 2026-04-17 11:21 | 48.39334 | 3.31912 | 36236 ft | 413 kts | 317° |
| 2026-04-17 11:22 | 48.44105 | 3.27190 | 36230 ft | 418 kts | 334° |
| 2026-04-17 11:22 | 48.49469 | 3.23797 | 36226 ft | 418 kts | 335° |
| 2026-04-17 11:23 | 48.54858 | 3.20443 | 36232 ft | 419 kts | 335° |
| 2026-04-17 11:23 | 48.60226 | 3.17039 | 36231 ft | 418 kts | 334° |
| 2026-04-17 11:24 | 48.65553 | 3.13624 | 36235 ft | 419 kts | 334° |
| 2026-04-17 11:24 | 48.70921 | 3.10170 | 36228 ft | 419 kts | 334° |
| 2026-04-17 11:25 | 48.76289 | 3.06709 | 36229 ft | 419 kts | 334° |
| 2026-04-17 11:25 | 48.81655 | 3.03244 | 36222 ft | 419 kts | 334° |
| 2026-04-17 11:26 | 48.86883 | 2.99523 | 36234 ft | 417 kts | 328° |
| 2026-04-17 11:26 | 48.91898 | 2.95101 | 36229 ft | 417 kts | 327° |
| 2026-04-17 11:27 | 48.96887 | 2.90617 | 36226 ft | 417 kts | 327° |
| 2026-04-17 11:27 | 49.01899 | 2.86167 | 36231 ft | 417 kts | 327° |
| 2026-04-17 11:28 | 49.06919 | 2.81737 | 36232 ft | 417 kts | 328° |
| 2026-04-17 11:28 | 49.11911 | 2.77332 | 36233 ft | 417 kts | 328° |
| 2026-04-17 11:29 | 49.16927 | 2.72895 | 36236 ft | 417 kts | 328° |
| 2026-04-17 11:29 | 49.21944 | 2.68445 | 36240 ft | 417 kts | 328° |
| 2026-04-17 11:30 | 49.26959 | 2.63987 | 36234 ft | 417 kts | 327° |
| 2026-04-17 11:30 | 49.31936 | 2.59552 | 36235 ft | 417 kts | 327° |
| 2026-04-17 11:31 | 49.36943 | 2.55078 | 36235 ft | 416 kts | 327° |
| 2026-04-17 11:31 | 49.41947 | 2.50597 | 36233 ft | 416 kts | 327° |
| 2026-04-17 11:32 | 49.46943 | 2.46113 | 36237 ft | 416 kts | 327° |
| 2026-04-17 11:32 | 49.51872 | 2.41553 | 36242 ft | 415 kts | 321° |
| 2026-04-17 11:33 | 49.56270 | 2.35881 | 36237 ft | 412 kts | 316° |
| 2026-04-17 11:33 | 49.60575 | 2.30045 | 36241 ft | 412 kts | 316° |
| 2026-04-17 11:34 | 49.64860 | 2.24286 | 35911 ft | 404 kts | 316° |
| 2026-04-17 11:34 | 49.66963 | 2.21478 | 35596 ft | 398 kts | 316° |
| 2026-04-17 11:34 | 49.69051 | 2.18693 | 35225 ft | 394 kts | 316° |
| 2026-04-17 11:35 | 49.71115 | 2.15938 | 34864 ft | 391 kts | 316° |
| 2026-04-17 11:35 | 49.73144 | 2.13227 | 34517 ft | 389 kts | 316° |
| 2026-04-17 11:35 | 49.75182 | 2.10503 | 34140 ft | 386 kts | 316° |
| 2026-04-17 11:35 | 49.77207 | 2.07793 | 33720 ft | 384 kts | 316° |
| 2026-04-17 11:36 | 49.79221 | 2.05094 | 33331 ft | 381 kts | 316° |
| 2026-04-17 11:36 | 49.81216 | 2.02417 | 32952 ft | 379 kts | 315° |
| 2026-04-17 11:36 | 49.83199 | 1.99754 | 32590 ft | 376 kts | 315° |
| 2026-04-17 11:36 | 49.85164 | 1.97111 | 32234 ft | 373 kts | 315° |
| 2026-04-17 11:37 | 49.87115 | 1.94484 | 31884 ft | 371 kts | 315° |
| 2026-04-17 11:37 | 49.89028 | 1.91906 | 31536 ft | 368 kts | 315° |
| 2026-04-17 11:37 | 49.90958 | 1.89302 | 31187 ft | 366 kts | 315° |
| 2026-04-17 11:37 | 49.92875 | 1.86712 | 30842 ft | 364 kts | 315° |
| 2026-04-17 11:38 | 49.94778 | 1.84137 | 30513 ft | 362 kts | 315° |
| 2026-04-17 11:38 | 49.96671 | 1.81575 | 30172 ft | 361 kts | 314° |
| 2026-04-17 11:38 | 49.98558 | 1.79018 | 29768 ft | 359 kts | 314° |
| 2026-04-17 11:38 | 50.00431 | 1.76476 | 29384 ft | 356 kts | 314° |
| 2026-04-17 11:39 | 50.02290 | 1.73951 | 29010 ft | 354 kts | 314° |
| 2026-04-17 11:39 | 50.04136 | 1.71442 | 28678 ft | 351 kts | 314° |
| 2026-04-17 11:39 | 50.05968 | 1.68949 | 28319 ft | 348 kts | 313° |
| 2026-04-17 11:39 | 50.07784 | 1.66477 | 27979 ft | 346 kts | 314° |
| 2026-04-17 11:40 | 50.09570 | 1.64058 | 27641 ft | 344 kts | 314° |
| 2026-04-17 11:40 | 50.11393 | 1.61592 | 27301 ft | 341 kts | 314° |
| 2026-04-17 11:40 | 50.13158 | 1.59202 | 26969 ft | 339 kts | 313° |
| 2026-04-17 11:40 | 50.14933 | 1.56795 | 26640 ft | 338 kts | 313° |
| 2026-04-17 11:41 | 50.16699 | 1.54397 | 26314 ft | 336 kts | 313° |
| 2026-04-17 11:41 | 50.18452 | 1.52013 | 25991 ft | 334 kts | 313° |
| 2026-04-17 11:41 | 50.20203 | 1.49631 | 25672 ft | 333 kts | 313° |
| 2026-04-17 11:41 | 50.21945 | 1.47257 | 25342 ft | 332 kts | 313° |
| 2026-04-17 11:42 | 50.23679 | 1.44891 | 25015 ft | 330 kts | 313° |
| 2026-04-17 11:42 | 50.25404 | 1.42534 | 24692 ft | 329 kts | 313° |
| 2026-04-17 11:42 | 50.27103 | 1.40211 | 24373 ft | 328 kts | 313° |
| 2026-04-17 11:42 | 50.28820 | 1.37862 | 24059 ft | 328 kts | 312° |
| 2026-04-17 11:43 | 50.30529 | 1.35520 | 23697 ft | 328 kts | 312° |
| 2026-04-17 11:43 | 50.32248 | 1.33164 | 23331 ft | 327 kts | 312° |
| 2026-04-17 11:43 | 50.33954 | 1.30822 | 22977 ft | 325 kts | 313° |
| 2026-04-17 11:43 | 50.35650 | 1.28493 | 22651 ft | 323 kts | 313° |
| 2026-04-17 11:44 | 50.37336 | 1.26175 | 22333 ft | 321 kts | 313° |
| 2026-04-17 11:44 | 50.39005 | 1.23877 | 22013 ft | 319 kts | 313° |
| 2026-04-17 11:44 | 50.40667 | 1.21588 | 21700 ft | 317 kts | 313° |
| 2026-04-17 11:44 | 50.42316 | 1.19313 | 21404 ft | 315 kts | 313° |
| 2026-04-17 11:45 | 50.43958 | 1.17046 | 21091 ft | 313 kts | 313° |
| 2026-04-17 11:45 | 50.45567 | 1.14821 | 20787 ft | 312 kts | 313° |
| 2026-04-17 11:45 | 50.47192 | 1.12574 | 20482 ft | 310 kts | 313° |
| 2026-04-17 11:45 | 50.48809 | 1.10336 | 20172 ft | 309 kts | 313° |
| 2026-04-17 11:46 | 50.50416 | 1.08109 | 19868 ft | 308 kts | 313° |
| 2026-04-17 11:46 | 50.52003 | 1.05864 | 19560 ft | 305 kts | 310° |
| 2026-04-17 11:46 | 50.53471 | 1.03472 | 19258 ft | 303 kts | 308° |
| 2026-04-17 11:46 | 50.54888 | 1.01038 | 18962 ft | 301 kts | 307° |
| 2026-04-17 11:47 | 50.56298 | 0.98603 | 18663 ft | 301 kts | 307° |
| 2026-04-17 11:47 | 50.57707 | 0.96182 | 18347 ft | 300 kts | 308° |
| 2026-04-17 11:47 | 50.59118 | 0.93772 | 18005 ft | 299 kts | 308° |
| 2026-04-17 11:47 | 50.60529 | 0.91371 | 17693 ft | 298 kts | 307° |
| 2026-04-17 11:48 | 50.61934 | 0.88984 | 17379 ft | 296 kts | 307° |
| 2026-04-17 11:48 | 50.63332 | 0.86612 | 17069 ft | 295 kts | 307° |
| 2026-04-17 11:48 | 50.64705 | 0.84280 | 16789 ft | 293 kts | 307° |
| 2026-04-17 11:48 | 50.66088 | 0.81930 | 16489 ft | 292 kts | 307° |
| 2026-04-17 11:49 | 50.67465 | 0.79585 | 16179 ft | 291 kts | 306° |
| 2026-04-17 11:49 | 50.68779 | 0.77135 | 15762 ft | 295 kts | 303° |
| 2026-04-17 11:49 | 50.70072 | 0.74586 | 15348 ft | 301 kts | 303° |
| 2026-04-17 11:49 | 50.71385 | 0.71986 | 14921 ft | 305 kts | 304° |
| 2026-04-17 11:50 | 50.73012 | 0.69758 | 14479 ft | 317 kts | 322° |
| 2026-04-17 11:50 | 50.74923 | 0.67984 | 14045 ft | 321 kts | 325° |
| 2026-04-17 11:50 | 50.76884 | 0.66267 | 13560 ft | 324 kts | 326° |
| 2026-04-17 11:50 | 50.78855 | 0.64553 | 13140 ft | 321 kts | 326° |
| 2026-04-17 11:51 | 50.80786 | 0.62877 | 12787 ft | 313 kts | 326° |
| 2026-04-17 11:51 | 50.82673 | 0.61241 | 12487 ft | 305 kts | 326° |
| 2026-04-17 11:51 | 50.84500 | 0.59657 | 12269 ft | 295 kts | 326° |
| 2026-04-17 11:51 | 50.86289 | 0.58105 | 11988 ft | 292 kts | 326° |
| 2026-04-17 11:52 | 50.88071 | 0.56553 | 11580 ft | 294 kts | 326° |
| 2026-04-17 11:52 | 50.89861 | 0.54983 | 10964 ft | 297 kts | 326° |
| 2026-04-17 11:52 | 50.91649 | 0.53406 | 10641 ft | 287 kts | 326° |
| 2026-04-17 11:52 | 50.93345 | 0.51917 | 10506 ft | 272 kts | 326° |
| 2026-04-17 11:53 | 50.94962 | 0.50504 | 10379 ft | 259 kts | 326° |
| 2026-04-17 11:53 | 50.96518 | 0.49155 | 10084 ft | 253 kts | 326° |
| 2026-04-17 11:53 | 50.98059 | 0.47821 | 9691 ft | 252 kts | 326° |
| 2026-04-17 11:53 | 50.99596 | 0.46483 | 9383 ft | 252 kts | 326° |
| 2026-04-17 11:54 | 51.01131 | 0.45152 | 9127 ft | 249 kts | 326° |
| 2026-04-17 11:54 | 51.02644 | 0.43842 | 8777 ft | 247 kts | 326° |
| 2026-04-17 11:54 | 51.04150 | 0.42529 | 8389 ft | 246 kts | 326° |
| 2026-04-17 11:54 | 51.05650 | 0.41210 | 8053 ft | 247 kts | 326° |
| 2026-04-17 11:55 | 51.07140 | 0.39891 | 7812 ft | 243 kts | 326° |
| 2026-04-17 11:55 | 51.08610 | 0.38584 | 7448 ft | 242 kts | 326° |
| 2026-04-17 11:55 | 51.10075 | 0.37274 | 7106 ft | 241 kts | 326° |
| 2026-04-17 11:55 | 51.11510 | 0.35986 | 6816 ft | 239 kts | 326° |
| 2026-04-17 11:56 | 51.12953 | 0.34696 | 6493 ft | 237 kts | 326° |
| 2026-04-17 11:56 | 51.14385 | 0.33412 | 6145 ft | 236 kts | 326° |
| 2026-04-17 11:56 | 51.15816 | 0.32126 | 5753 ft | 236 kts | 326° |
| 2026-04-17 11:56 | 51.17245 | 0.30835 | 5360 ft | 236 kts | 325° |
| 2026-04-17 11:57 | 51.18430 | 0.29149 | 4972 ft | 226 kts | 296° |
| 2026-04-17 11:57 | 51.18984 | 0.26851 | 4783 ft | 218 kts | 282° |
| 2026-04-17 11:57 | 51.19382 | 0.24571 | 4734 ft | 209 kts | 281° |
| 2026-04-17 11:57 | 51.19763 | 0.22376 | 4683 ft | 202 kts | 281° |
| 2026-04-17 11:58 | 51.20053 | 0.20262 | 4539 ft | 194 kts | 266° |
| 2026-04-17 11:58 | 51.19882 | 0.18156 | 4352 ft | 193 kts | 258° |
| 2026-04-17 11:58 | 51.19654 | 0.16045 | 4120 ft | 193 kts | 257° |
| 2026-04-17 11:58 | 51.19394 | 0.13965 | 3887 ft | 190 kts | 256° |
| 2026-04-17 11:59 | 51.19119 | 0.11934 | 3643 ft | 185 kts | 255° |
| 2026-04-17 11:59 | 51.18844 | 0.09960 | 3406 ft | 180 kts | 254° |
| 2026-04-17 11:59 | 51.18572 | 0.08023 | 3195 ft | 178 kts | 254° |
| 2026-04-17 11:59 | 51.18303 | 0.06106 | 2954 ft | 175 kts | 255° |
| 2026-04-17 12:00 | 51.18042 | 0.04234 | 2738 ft | 171 kts | 255° |
| 2026-04-17 12:00 | 51.17785 | 0.02398 | 2564 ft | 170 kts | 254° |
| 2026-04-17 12:00 | 51.17529 | 0.00566 | 2325 ft | 168 kts | 254° |
| 2026-04-17 12:00 | 51.17278 | -0.01232 | 2255 ft | 165 kts | 253° |
| 2026-04-17 12:01 | 51.17035 | -0.02990 | 2030 ft | 161 kts | 253° |
| 2026-04-17 12:01 | 51.16804 | -0.04648 | 1819 ft | 147 kts | 253° |
| 2026-04-17 12:01 | 51.16580 | -0.06254 | 1631 ft | 148 kts | 253° |
| 2026-04-17 12:01 | 51.16371 | -0.07769 | 1423 ft | 136 kts | 252° |
| 2026-04-17 12:02 | 51.16172 | -0.09195 | 1267 ft | 127 kts | 253° |
| 2026-04-17 12:02 | 51.15977 | -0.10565 | 1074 ft | 128 kts | 253° |
| 2026-04-17 12:02 | 51.15787 | -0.11963 | 889 ft | 131 kts | 255° |
| 2026-04-17 12:02 | 51.15592 | -0.13377 | 732 ft | 129 kts | 250° |
| 2026-04-17 12:03 | 51.15405 | -0.14769 | 561 ft | 127 kts | 252° |
| 2026-04-17 12:03 | 51.15212 | -0.16132 | 375 ft | 127 kts | 253° |
| 2026-04-17 12:03 | 51.15037 | -0.17445 | 234 ft | 118 kts | 252° |
| 2026-04-17 12:03 | 51.14879 | -0.18563 | 207 ft | 85 kts | 257° |
| 2026-04-17 12:04 | 51.14783 | -0.19256 | 206 ft | 49 kts | 257° |
| 2026-04-17 12:04 | 51.14720 | -0.19712 | 206 ft | 35 kts | 258° |
| 2026-04-17 12:04 | 51.14713 | -0.20072 | 214 ft | 31 kts | 280° |
| 2026-04-17 12:04 | 51.14755 | -0.20375 | 206 ft | 23 kts | 282° |
| 2026-04-17 12:05 | 51.14779 | -0.20554 | 202 ft | 9 kts | 283° |
| 2026-04-17 12:05 | 51.14816 | -0.20642 | 208 ft | 9 kts | 335° |
| 2026-04-17 12:05 | 51.14869 | -0.20607 | 205 ft | 10 kts | 61° |
| 2026-04-17 12:05 | 51.14887 | -0.20496 | 212 ft | 11 kts | 78° |
| 2026-04-17 12:06 | 51.14905 | -0.20367 | 206 ft | 13 kts | 78° |
| 2026-04-17 12:06 | 51.14924 | -0.20227 | 202 ft | 14 kts | 78° |
| 2026-04-17 12:06 | 51.14945 | -0.20070 | 213 ft | 15 kts | 79° |
| 2026-04-17 12:06 | 51.14969 | -0.19899 | 203 ft | 16 kts | 76° |
| 2026-04-17 12:07 | 51.14994 | -0.19717 | 203 ft | 17 kts | 78° |
| 2026-04-17 12:07 | 51.15019 | -0.19538 | 208 ft | 16 kts | 77° |
| 2026-04-17 12:07 | 51.15043 | -0.19366 | 213 ft | 16 kts | 78° |
| 2026-04-17 12:07 | 51.15071 | -0.19165 | 203 ft | 20 kts | 77° |
| 2026-04-17 12:08 | 51.15100 | -0.18954 | 209 ft | 19 kts | 77° |
| 2026-04-17 12:08 | 51.15127 | -0.18750 | 205 ft | 19 kts | 77° |
| 2026-04-17 12:08 | 51.15155 | -0.18553 | 203 ft | 18 kts | 77° |
| 2026-04-17 12:08 | 51.15181 | -0.18365 | 203 ft | 17 kts | 78° |
| 2026-04-17 12:09 | 51.15199 | -0.18179 | 206 ft | 17 kts | 77° |
| 2026-04-17 12:09 | 51.15225 | -0.18003 | 208 ft | 16 kts | 79° |
| 2026-04-17 12:09 | 51.15247 | -0.17832 | 203 ft | 15 kts | 77° |
| 2026-04-17 12:09 | 51.15270 | -0.17669 | 203 ft | 15 kts | 77° |
| 2026-04-17 12:10 | 51.15292 | -0.17505 | 209 ft | 16 kts | 80° |
| 2026-04-17 12:10 | 51.15333 | -0.17367 | 210 ft | 12 kts | 27° |
| 2026-04-17 12:10 | 51.15373 | -0.17263 | 203 ft | 11 kts | 72° |
| 2026-04-17 12:10 | 51.15400 | -0.17148 | 206 ft | 11 kts | 62° |
| 2026-04-17 12:11 | 51.15420 | -0.17033 | 211 ft | 11 kts | 76° |
| 2026-04-17 12:11 | 51.15436 | -0.16921 | 208 ft | 10 kts | 79° |
| 2026-04-17 12:11 | 51.15460 | -0.16891 | 206 ft | 5 kts | 349° |
| 2026-04-17 12:12 | 51.15496 | -0.16903 | 210 ft | 0 kts | 348° |